Roberts Field
KRDM : now visible

Airfield :











YOU CAN JOIN US ON...

 
LOGIN :

Register | Disclaimer

   EN    FR    IT 

 









Legend :    VFR   Marginal VFR   IFR   Intensive IFR   Very Intensive IFR
Visi :
Ceiling :
>= 8 km
>= 3000ft
5 to 8 km
1000 to 3000 ft
1500m to 5 km
500 to 1000 ft
800 to 1500m
200 to 500 ft
< 800m
< 200 ft
Symbols :   Thunderstorms  Fog  Heavy snow  Heavy precipitations  Wind > 20 kt






- Airport Elevation : 3080 ft
- IATA code : RDM


KRDM - Roberts Field

CURRENT METAR :
  • 231456Z 00000KT 10SM OVC060 04/M03 A3003 RMK AO2 SLP176 T00441028 56004

EXPIRED METARs :
  • 231356Z 00000KT 10SM OVC060 03/M04 A3004 RMK AO2 SLP177 T00331039
  • 231256Z 13004KT 10SM BKN065 OVC080 02/M04 A3004 RMK AO2 SLP173 T00171039
  • 231156Z AUTO 00000KT 10SM BKN080 OVC100 01/M04 A3004 RMK AO2 SLP175 T00061039 10017 21017 53005

TAF KRDM
Valid from the 23 at 12:00 until the 24 at 12:00 UTC


231120Z 2312/2412 16009KT P6SM SCT060 BKN070
FM231500 19016G24KT P6SM VCSH SCT040 OVC050
FM232000 27026G36KT P6SM SCT050
FM240300 30014G22KT P6SM SKC
FM240800 VRB06KT P6SM SKC



MET'MAP, your aeronautical weather chart ! - Copyright ORBIFLY December 2007 - Disclaimer

ORBIFLY MET'MAP TEAM :

Programming & Development : Alexandra Zaïnal
Concept & original design : Baudouin d'Aumeries
Assistance for programming : Marc-Olivier Méhu
Technical & hardware support : Manuel Goepfert

Contact : metmap@orbifly.com




SOURCES & CREDITS :

   NOAA       Earth
Advisory